sensor_id;sensor_type;location;lat;lon;timestamp;noise_LAeq;noise_LA_min;noise_LA_max;noise_LA01;noise_LA95
67320;Laerm;57665;51.436;5.978;2022-10-19T00:00:09;38.51;36.76;41.99;;
67320;Laerm;57665;51.436;5.978;2022-10-19T00:00:19;37.98;36.79;39.06;;
67320;Laerm;57665;51.436;5.978;2022-10-19T00:00:32;37.87;36.88;38.89;;
67320;Laerm;57665;51.436;5.978;2022-10-19T00:00:43;38.13;37.09;39.05;;
67320;Laerm;57665;51.436;5.978;2022-10-19T00:00:59;38.01;36.87;38.96;;
67320;Laerm;57665;51.436;5.978;2022-10-19T00:01:14;38.24;36.99;39.82;;
67320;Laerm;57665;51.436;5.978;2022-10-19T00:01:30;58.90;38.22;66.24;;
67320;Laerm;57665;51.436;5.978;2022-10-19T00:01:40;61.18;49.54;68.52;;
67320;Laerm;57665;51.436;5.978;2022-10-19T00:01:51;44.32;37.89;52.41;;
67320;Laerm;57665;51.436;5.978;2022-10-19T00:02:01;38.28;36.79;39.26;;
67320;Laerm;57665;51.436;5.978;2022-10-19T00:02:12;38.05;37.18;38.99;;
67320;Laerm;57665;51.436;5.978;2022-10-19T00:02:23;38.05;36.84;38.90;;
67320;Laerm;57665;51.436;5.978;2022-10-19T00:02:36;38.00;36.77;39.00;;
67320;Laerm;57665;51.436;5.978;2022-10-19T00:02:46;37.90;36.95;38.85;;
67320;Laerm;57665;51.436;5.978;2022-10-19T00:02:56;37.93;36.70;38.85;;
67320;Laerm;57665;51.436;5.978;2022-10-19T00:03:06;37.84;36.71;38.90;;
67320;Laerm;57665;51.436;5.978;2022-10-19T00:03:17;37.88;36.68;39.39;;
67320;Laerm;57665;51.436;5.978;2022-10-19T00:03:30;37.87;36.76;38.77;;
67320;Laerm;57665;51.436;5.978;2022-10-19T00:03:41;38.02;37.09;39.00;;
67320;Laerm;57665;51.436;5.978;2022-10-19T00:03:52;38.03;36.92;39.05;;
67320;Laerm;57665;51.436;5.978;2022-10-19T00:04:03;38.06;36.95;39.27;;
67320;Laerm;57665;51.436;5.978;2022-10-19T00:04:13;38.02;37.09;39.03;;
67320;Laerm;57665;51.436;5.978;2022-10-19T00:04:24;38.15;37.24;45.64;;
67320;Laerm;57665;51.436;5.978;2022-10-19T00:04:36;38.12;37.03;39.11;;
67320;Laerm;57665;51.436;5.978;2022-10-19T00:04:46;38.05;37.09;39.26;;
67320;Laerm;57665;51.436;5.978;2022-10-19T00:04:56;38.16;36.95;39.46;;
67320;Laerm;57665;51.436;5.978;2022-10-19T00:05:06;38.11;37.07;39.13;;
67320;Laerm;57665;51.436;5.978;2022-10-19T00:05:17;38.10;37.09;39.46;;
67320;Laerm;57665;51.436;5.978;2022-10-19T00:05:27;38.05;36.99;38.99;;
67320;Laerm;57665;51.436;5.978;2022-10-19T00:05:37;38.17;36.98;39.57;;
67320;Laerm;57665;51.436;5.978;2022-10-19T00:05:47;38.25;37.26;39.20;;
67320;Laerm;57665;51.436;5.978;2022-10-19T00:05:58;38.21;37.26;39.13;;
67320;Laerm;57665;51.436;5.978;2022-10-19T00:06:25;38.15;36.64;39.55;;
67320;Laerm;57665;51.436;5.978;2022-10-19T00:06:36;38.08;37.11;39.14;;
67320;Laerm;57665;51.436;5.978;2022-10-19T00:06:49;38.01;37.03;39.13;;
67320;Laerm;57665;51.436;5.978;2022-10-19T00:07:00;38.13;37.02;38.99;;
67320;Laerm;57665;51.436;5.978;2022-10-19T00:07:10;38.04;36.97;39.18;;
67320;Laerm;57665;51.436;5.978;2022-10-19T00:07:20;38.02;36.88;39.13;;
67320;Laerm;57665;51.436;5.978;2022-10-19T00:07:30;37.97;36.71;39.09;;
67320;Laerm;57665;51.436;5.978;2022-10-19T00:07:42;37.94;36.59;38.99;;
67320;Laerm;57665;51.436;5.978;2022-10-19T00:07:52;37.92;36.82;39.11;;
67320;Laerm;57665;51.436;5.978;2022-10-19T00:08:03;37.99;36.88;39.03;;
67320;Laerm;57665;51.436;5.978;2022-10-19T00:08:13;38.02;37.01;38.98;;
67320;Laerm;57665;51.436;5.978;2022-10-19T00:08:27;38.04;37.00;39.35;;
67320;Laerm;57665;51.436;5.978;2022-10-19T00:08:37;38.06;36.86;39.11;;
67320;Laerm;57665;51.436;5.978;2022-10-19T00:08:47;38.06;37.12;39.34;;
67320;Laerm;57665;51.436;5.978;2022-10-19T00:08:59;37.90;36.75;38.90;;
67320;Laerm;57665;51.436;5.978;2022-10-19T00:09:16;37.96;36.93;39.05;;
67320;Laerm;57665;51.436;5.978;2022-10-19T00:09:26;37.96;36.73;39.08;;
67320;Laerm;57665;51.436;5.978;2022-10-19T00:09:38;37.96;36.76;39.09;;
67320;Laerm;57665;51.436;5.978;2022-10-19T00:09:48;37.88;37.04;38.79;;
67320;Laerm;57665;51.436;5.978;2022-10-19T00:09:59;37.98;37.12;38.94;;
67320;Laerm;57665;51.436;5.978;2022-10-19T00:10:09;37.95;36.99;38.92;;
67320;Laerm;57665;51.436;5.978;2022-10-19T00:10:19;38.01;36.85;39.20;;
67320;Laerm;57665;51.436;5.978;2022-10-19T00:10:31;38.15;37.00;39.42;;
67320;Laerm;57665;51.436;5.978;2022-10-19T00:10:41;38.14;37.04;39.23;;
67320;Laerm;57665;51.436;5.978;2022-10-19T00:10:52;38.16;37.09;39.46;;
67320;Laerm;57665;51.436;5.978;2022-10-19T00:11:02;38.07;36.87;39.32;;
67320;Laerm;57665;51.436;5.978;2022-10-19T00:11:12;38.01;36.83;39.34;;
67320;Laerm;57665;51.436;5.978;2022-10-19T00:11:29;38.04;36.80;39.11;;
67320;Laerm;57665;51.436;5.978;2022-10-19T00:11:41;38.07;37.05;39.10;;
67320;Laerm;57665;51.436;5.978;2022-10-19T00:11:52;38.05;37.11;39.15;;
67320;Laerm;57665;51.436;5.978;2022-10-19T00:12:02;38.02;36.95;39.11;;
67320;Laerm;57665;51.436;5.978;2022-10-19T00:12:12;38.16;37.20;39.40;;
67320;Laerm;57665;51.436;5.978;2022-10-19T00:12:22;38.13;36.91;39.13;;
67320;Laerm;57665;51.436;5.978;2022-10-19T00:12:33;38.08;36.98;39.22;;
67320;Laerm;57665;51.436;5.978;2022-10-19T00:12:43;38.08;37.09;39.20;;
67320;Laerm;57665;51.436;5.978;2022-10-19T00:12:53;38.15;36.91;39.44;;
67320;Laerm;57665;51.436;5.978;2022-10-19T00:13:04;38.06;36.96;39.20;;
67320;Laerm;57665;51.436;5.978;2022-10-19T00:13:14;38.03;36.64;39.25;;
67320;Laerm;57665;51.436;5.978;2022-10-19T00:13:24;38.07;36.94;39.43;;
67320;Laerm;57665;51.436;5.978;2022-10-19T00:13:34;37.96;36.63;39.07;;
67320;Laerm;57665;51.436;5.978;2022-10-19T00:13:45;37.93;36.78;38.88;;
67320;Laerm;57665;51.436;5.978;2022-10-19T00:13:55;37.97;36.94;39.11;;
67320;Laerm;57665;51.436;5.978;2022-10-19T00:14:06;37.95;36.88;38.99;;
67320;Laerm;57665;51.436;5.978;2022-10-19T00:14:18;38.01;36.88;39.08;;
67320;Laerm;57665;51.436;5.978;2022-10-19T00:14:28;38.10;36.75;39.38;;
67320;Laerm;57665;51.436;5.978;2022-10-19T00:14:39;38.04;36.80;39.09;;
67320;Laerm;57665;51.436;5.978;2022-10-19T00:14:49;38.11;37.07;39.47;;
67320;Laerm;57665;51.436;5.978;2022-10-19T00:14:59;38.16;37.18;39.50;;
67320;Laerm;57665;51.436;5.978;2022-10-19T00:15:09;38.08;36.89;39.38;;
67320;Laerm;57665;51.436;5.978;2022-10-19T00:15:20;38.16;36.66;39.29;;
67320;Laerm;57665;51.436;5.978;2022-10-19T00:15:30;38.12;36.74;39.25;;
67320;Laerm;57665;51.436;5.978;2022-10-19T00:15:40;38.10;37.19;39.22;;
67320;Laerm;57665;51.436;5.978;2022-10-19T00:15:51;38.12;36.99;39.30;;
67320;Laerm;57665;51.436;5.978;2022-10-19T00:16:01;38.20;37.09;39.24;;
67320;Laerm;57665;51.436;5.978;2022-10-19T00:16:16;38.04;36.89;39.25;;
67320;Laerm;57665;51.436;5.978;2022-10-19T00:16:27;38.21;36.95;39.48;;
67320;Laerm;57665;51.436;5.978;2022-10-19T00:16:38;38.23;37.27;39.12;;
67320;Laerm;57665;51.436;5.978;2022-10-19T00:16:49;38.03;37.05;39.26;;
67320;Laerm;57665;51.436;5.978;2022-10-19T00:17:00;38.07;36.98;39.00;;
67320;Laerm;57665;51.436;5.978;2022-10-19T00:17:10;38.08;37.06;39.53;;
67320;Laerm;57665;51.436;5.978;2022-10-19T00:17:20;38.14;36.71;39.26;;
67320;Laerm;57665;51.436;5.978;2022-10-19T00:17:30;38.21;36.94;39.24;;
67320;Laerm;57665;51.436;5.978;2022-10-19T00:17:41;38.30;37.19;39.33;;
67320;Laerm;57665;51.436;5.978;2022-10-19T00:17:52;38.13;36.84;39.31;;
67320;Laerm;57665;51.436;5.978;2022-10-19T00:18:02;38.15;37.05;39.12;;
67320;Laerm;57665;51.436;5.978;2022-10-19T00:18:12;38.27;37.26;39.65;;
67320;Laerm;57665;51.436;5.978;2022-10-19T00:18:23;38.37;37.15;39.92;;
67320;Laerm;57665;51.436;5.978;2022-10-19T00:18:33;38.12;36.88;39.20;;
67320;Laerm;57665;51.436;5.978;2022-10-19T00:18:43;38.17;37.12;39.48;;
67320;Laerm;57665;51.436;5.978;2022-10-19T00:19:00;38.23;36.91;39.23;;
67320;Laerm;57665;51.436;5.978;2022-10-19T00:19:12;38.22;36.97;39.28;;
67320;Laerm;57665;51.436;5.978;2022-10-19T00:19:23;38.16;37.00;39.13;;
67320;Laerm;57665;51.436;5.978;2022-10-19T00:19:34;38.20;37.12;39.44;;
67320;Laerm;57665;51.436;5.978;2022-10-19T00:19:47;38.23;37.10;39.34;;
67320;Laerm;57665;51.436;5.978;2022-10-19T00:19:57;38.16;37.09;39.35;;
67320;Laerm;57665;51.436;5.978;2022-10-19T00:20:08;38.28;37.06;39.30;;
67320;Laerm;57665;51.436;5.978;2022-10-19T00:20:18;38.23;37.34;39.56;;
67320;Laerm;57665;51.436;5.978;2022-10-19T00:20:28;38.33;37.15;39.70;;
67320;Laerm;57665;51.436;5.978;2022-10-19T00:20:42;38.32;37.02;39.62;;
67320;Laerm;57665;51.436;5.978;2022-10-19T00:21:00;38.25;37.12;39.53;;
67320;Laerm;57665;51.436;5.978;2022-10-19T00:21:14;38.22;36.99;39.56;;
67320;Laerm;57665;51.436;5.978;2022-10-19T00:21:25;38.32;37.20;39.58;;
67320;Laerm;57665;51.436;5.978;2022-10-19T00:21:35;38.34;36.89;39.80;;
67320;Laerm;57665;51.436;5.978;2022-10-19T00:21:46;38.08;37.05;39.17;;
67320;Laerm;57665;51.436;5.978;2022-10-19T00:21:57;38.17;36.73;39.33;;
67320;Laerm;57665;51.436;5.978;2022-10-19T00:22:07;38.40;37.35;39.47;;
67320;Laerm;57665;51.436;5.978;2022-10-19T00:22:17;38.51;37.09;40.27;;
67320;Laerm;57665;51.436;5.978;2022-10-19T00:22:27;38.45;37.12;39.70;;
67320;Laerm;57665;51.436;5.978;2022-10-19T00:22:38;38.36;37.31;39.65;;
67320;Laerm;57665;51.436;5.978;2022-10-19T00:22:48;38.52;37.16;39.67;;
67320;Laerm;57665;51.436;5.978;2022-10-19T00:22:59;38.37;36.97;39.89;;
67320;Laerm;57665;51.436;5.978;2022-10-19T00:23:09;38.33;37.30;39.75;;
67320;Laerm;57665;51.436;5.978;2022-10-19T00:23:20;38.39;36.89;39.57;;
67320;Laerm;57665;51.436;5.978;2022-10-19T00:23:32;38.37;36.94;40.08;;
67320;Laerm;57665;51.436;5.978;2022-10-19T00:23:42;38.56;37.02;40.41;;
67320;Laerm;57665;51.436;5.978;2022-10-19T00:23:53;38.57;37.39;39.58;;
67320;Laerm;57665;51.436;5.978;2022-10-19T00:24:03;38.76;37.45;40.00;;
67320;Laerm;57665;51.436;5.978;2022-10-19T00:24:14;38.66;37.41;39.94;;
67320;Laerm;57665;51.436;5.978;2022-10-19T00:24:24;38.56;37.53;39.84;;
67320;Laerm;57665;51.436;5.978;2022-10-19T00:24:34;38.46;37.27;39.69;;
67320;Laerm;57665;51.436;5.978;2022-10-19T00:24:45;38.39;37.33;39.48;;
67320;Laerm;57665;51.436;5.978;2022-10-19T00:24:56;38.49;37.11;39.84;;
67320;Laerm;57665;51.436;5.978;2022-10-19T00:25:06;38.54;37.37;40.37;;
67320;Laerm;57665;51.436;5.978;2022-10-19T00:25:17;38.76;37.63;39.98;;
67320;Laerm;57665;51.436;5.978;2022-10-19T00:25:27;38.72;37.43;40.14;;
67320;Laerm;57665;51.436;5.978;2022-10-19T00:25:37;38.55;37.32;39.77;;
67320;Laerm;57665;51.436;5.978;2022-10-19T00:25:54;38.57;37.31;39.80;;
67320;Laerm;57665;51.436;5.978;2022-10-19T00:26:05;38.61;37.36;40.18;;
67320;Laerm;57665;51.436;5.978;2022-10-19T00:26:15;38.57;37.11;40.10;;
67320;Laerm;57665;51.436;5.978;2022-10-19T00:26:25;38.56;37.41;39.61;;
67320;Laerm;57665;51.436;5.978;2022-10-19T00:26:36;38.58;37.27;39.53;;
67320;Laerm;57665;51.436;5.978;2022-10-19T00:26:46;38.65;37.35;40.21;;
67320;Laerm;57665;51.436;5.978;2022-10-19T00:26:57;38.55;37.29;40.02;;
67320;Laerm;57665;51.436;5.978;2022-10-19T00:27:07;38.58;37.34;39.63;;
67320;Laerm;57665;51.436;5.978;2022-10-19T00:27:17;38.48;37.47;39.77;;
67320;Laerm;57665;51.436;5.978;2022-10-19T00:27:27;38.58;37.51;39.89;;
67320;Laerm;57665;51.436;5.978;2022-10-19T00:27:37;38.53;37.34;39.72;;
67320;Laerm;57665;51.436;5.978;2022-10-19T00:27:48;38.49;37.22;39.79;;
67320;Laerm;57665;51.436;5.978;2022-10-19T00:28:02;38.63;37.35;39.85;;
67320;Laerm;57665;51.436;5.978;2022-10-19T00:28:12;38.49;37.29;39.44;;
67320;Laerm;57665;51.436;5.978;2022-10-19T00:28:24;38.54;37.40;39.69;;
67320;Laerm;57665;51.436;5.978;2022-10-19T00:28:35;38.58;37.30;40.50;;
67320;Laerm;57665;51.436;5.978;2022-10-19T00:28:45;38.39;36.97;39.59;;
67320;Laerm;57665;51.436;5.978;2022-10-19T00:28:56;38.43;37.18;40.08;;
67320;Laerm;57665;51.436;5.978;2022-10-19T00:29:06;38.38;37.27;39.44;;
67320;Laerm;57665;51.436;5.978;2022-10-19T00:29:16;38.45;37.11;39.69;;
67320;Laerm;57665;51.436;5.978;2022-10-19T00:29:27;38.46;37.42;39.64;;
67320;Laerm;57665;51.436;5.978;2022-10-19T00:29:37;38.40;37.28;39.56;;
67320;Laerm;57665;51.436;5.978;2022-10-19T00:29:47;38.43;37.39;39.95;;
67320;Laerm;57665;51.436;5.978;2022-10-19T00:29:58;38.61;37.43;40.21;;
67320;Laerm;57665;51.436;5.978;2022-10-19T00:30:08;38.63;37.64;40.26;;
67320;Laerm;57665;51.436;5.978;2022-10-19T00:30:21;38.66;37.21;40.16;;
67320;Laerm;57665;51.436;5.978;2022-10-19T00:30:35;38.50;37.07;39.79;;
67320;Laerm;57665;51.436;5.978;2022-10-19T00:30:45;38.29;37.09;39.47;;
67320;Laerm;57665;51.436;5.978;2022-10-19T00:30:56;38.47;37.41;42.54;;
67320;Laerm;57665;51.436;5.978;2022-10-19T00:31:07;38.42;37.24;40.04;;
67320;Laerm;57665;51.436;5.978;2022-10-19T00:31:20;38.41;37.27;39.74;;
67320;Laerm;57665;51.436;5.978;2022-10-19T00:31:31;38.39;37.30;39.81;;
67320;Laerm;57665;51.436;5.978;2022-10-19T00:31:41;38.45;37.16;39.67;;
67320;Laerm;57665;51.436;5.978;2022-10-19T00:31:51;38.55;37.41;39.71;;
67320;Laerm;57665;51.436;5.978;2022-10-19T00:32:01;38.42;36.96;39.47;;
67320;Laerm;57665;51.436;5.978;2022-10-19T00:32:12;38.61;37.15;43.14;;
67320;Laerm;57665;51.436;5.978;2022-10-19T00:32:22;38.33;37.19;39.65;;
67320;Laerm;57665;51.436;5.978;2022-10-19T00:32:32;38.35;37.38;39.85;;
67320;Laerm;57665;51.436;5.978;2022-10-19T00:32:42;38.17;37.07;39.21;;
67320;Laerm;57665;51.436;5.978;2022-10-19T00:32:52;38.28;37.01;39.67;;
67320;Laerm;57665;51.436;5.978;2022-10-19T00:33:03;38.24;37.08;39.33;;
67320;Laerm;57665;51.436;5.978;2022-10-19T00:33:13;38.20;36.99;39.30;;
67320;Laerm;57665;51.436;5.978;2022-10-19T00:33:29;38.22;37.11;39.43;;
67320;Laerm;57665;51.436;5.978;2022-10-19T00:33:40;38.18;36.97;39.36;;
67320;Laerm;57665;51.436;5.978;2022-10-19T00:33:54;38.23;36.94;39.44;;
67320;Laerm;57665;51.436;5.978;2022-10-19T00:34:05;38.30;37.26;39.97;;
67320;Laerm;57665;51.436;5.978;2022-10-19T00:34:15;38.28;37.09;39.51;;
67320;Laerm;57665;51.436;5.978;2022-10-19T00:34:28;38.27;37.01;39.63;;
67320;Laerm;57665;51.436;5.978;2022-10-19T00:34:39;38.22;37.33;39.54;;
67320;Laerm;57665;51.436;5.978;2022-10-19T00:34:49;38.39;37.25;39.72;;
67320;Laerm;57665;51.436;5.978;2022-10-19T00:35:02;38.47;37.23;39.54;;
67320;Laerm;57665;51.436;5.978;2022-10-19T00:35:12;38.32;37.17;39.73;;
67320;Laerm;57665;51.436;5.978;2022-10-19T00:35:23;38.26;36.97;39.34;;
67320;Laerm;57665;51.436;5.978;2022-10-19T00:35:33;38.27;37.28;39.62;;
67320;Laerm;57665;51.436;5.978;2022-10-19T00:35:49;38.18;37.07;39.59;;
67320;Laerm;57665;51.436;5.978;2022-10-19T00:36:00;38.20;37.27;39.39;;
67320;Laerm;57665;51.436;5.978;2022-10-19T00:36:17;38.20;36.95;39.37;;
67320;Laerm;57665;51.436;5.978;2022-10-19T00:36:29;38.36;37.23;39.66;;
67320;Laerm;57665;51.436;5.978;2022-10-19T00:36:40;38.35;37.21;39.65;;
67320;Laerm;57665;51.436;5.978;2022-10-19T00:36:51;38.45;37.35;39.83;;
67320;Laerm;57665;51.436;5.978;2022-10-19T00:37:01;38.37;36.92;39.86;;
67320;Laerm;57665;51.436;5.978;2022-10-19T00:37:11;38.28;37.19;39.34;;
67320;Laerm;57665;51.436;5.978;2022-10-19T00:37:21;38.29;36.97;39.47;;
67320;Laerm;57665;51.436;5.978;2022-10-19T00:37:32;38.30;36.79;39.71;;
67320;Laerm;57665;51.436;5.978;2022-10-19T00:37:42;38.20;37.06;39.66;;
67320;Laerm;57665;51.436;5.978;2022-10-19T00:37:53;38.28;36.82;39.52;;
67320;Laerm;57665;51.436;5.978;2022-10-19T00:38:03;38.30;36.98;39.51;;
67320;Laerm;57665;51.436;5.978;2022-10-19T00:38:13;38.25;37.20;39.38;;
67320;Laerm;57665;51.436;5.978;2022-10-19T00:38:23;38.24;37.01;39.39;;
67320;Laerm;57665;51.436;5.978;2022-10-19T00:38:34;38.17;36.91;39.40;;
67320;Laerm;57665;51.436;5.978;2022-10-19T00:38:45;38.17;37.12;39.24;;
67320;Laerm;57665;51.436;5.978;2022-10-19T00:38:55;38.16;37.11;39.69;;
67320;Laerm;57665;51.436;5.978;2022-10-19T00:39:06;38.27;36.89;39.59;;
67320;Laerm;57665;51.436;5.978;2022-10-19T00:39:17;38.15;37.12;39.17;;
67320;Laerm;57665;51.436;5.978;2022-10-19T00:39:27;38.13;36.88;39.26;;
67320;Laerm;57665;51.436;5.978;2022-10-19T00:39:38;38.16;36.94;39.20;;
67320;Laerm;57665;51.436;5.978;2022-10-19T00:39:48;38.25;37.15;39.53;;
67320;Laerm;57665;51.436;5.978;2022-10-19T00:39:58;38.28;37.34;39.32;;
67320;Laerm;57665;51.436;5.978;2022-10-19T00:40:09;38.32;37.28;39.30;;
67320;Laerm;57665;51.436;5.978;2022-10-19T00:40:20;38.31;37.19;39.48;;
67320;Laerm;57665;51.436;5.978;2022-10-19T00:40:35;38.26;37.04;39.44;;
67320;Laerm;57665;51.436;5.978;2022-10-19T00:40:46;38.35;37.22;39.49;;
67320;Laerm;57665;51.436;5.978;2022-10-19T00:40:56;38.34;37.01;39.50;;
67320;Laerm;57665;51.436;5.978;2022-10-19T00:41:10;38.25;36.90;39.24;;
67320;Laerm;57665;51.436;5.978;2022-10-19T00:41:22;38.41;36.83;39.55;;
67320;Laerm;57665;51.436;5.978;2022-10-19T00:41:33;38.23;36.89;39.38;;
67320;Laerm;57665;51.436;5.978;2022-10-19T00:41:45;38.30;37.37;39.41;;
67320;Laerm;57665;51.436;5.978;2022-10-19T00:41:55;38.28;36.96;39.43;;
67320;Laerm;57665;51.436;5.978;2022-10-19T00:42:08;38.21;37.11;39.28;;
67320;Laerm;57665;51.436;5.978;2022-10-19T00:42:25;38.56;37.25;40.15;;
67320;Laerm;57665;51.436;5.978;2022-10-19T00:42:35;38.43;37.19;39.39;;
67320;Laerm;57665;51.436;5.978;2022-10-19T00:42:45;38.45;37.36;39.71;;
67320;Laerm;57665;51.436;5.978;2022-10-19T00:42:55;38.36;37.02;39.85;;
67320;Laerm;57665;51.436;5.978;2022-10-19T00:43:13;38.30;36.98;39.65;;
67320;Laerm;57665;51.436;5.978;2022-10-19T00:43:26;38.43;37.22;39.70;;
67320;Laerm;57665;51.436;5.978;2022-10-19T00:43:49;38.43;37.26;39.46;;
67320;Laerm;57665;51.436;5.978;2022-10-19T00:44:00;38.36;36.96;39.29;;
67320;Laerm;57665;51.436;5.978;2022-10-19T00:44:55;38.35;37.22;39.53;;
67320;Laerm;57665;51.436;5.978;2022-10-19T00:45:11;38.33;37.08;39.52;;
67320;Laerm;57665;51.436;5.978;2022-10-19T00:45:22;38.40;37.09;39.48;;
67320;Laerm;57665;51.436;5.978;2022-10-19T00:45:32;38.49;37.47;40.66;;
67320;Laerm;57665;51.436;5.978;2022-10-19T00:45:44;38.46;37.12;39.84;;
67320;Laerm;57665;51.436;5.978;2022-10-19T00:45:54;38.40;37.23;39.88;;
67320;Laerm;57665;51.436;5.978;2022-10-19T00:46:04;38.39;37.42;39.56;;
67320;Laerm;57665;51.436;5.978;2022-10-19T00:46:14;38.32;37.07;39.87;;
67320;Laerm;57665;51.436;5.978;2022-10-19T00:46:26;38.37;37.13;39.71;;
67320;Laerm;57665;51.436;5.978;2022-10-19T00:46:40;38.33;37.28;40.06;;
67320;Laerm;57665;51.436;5.978;2022-10-19T00:46:51;38.39;37.28;39.75;;
67320;Laerm;57665;51.436;5.978;2022-10-19T00:47:03;38.43;37.32;39.72;;
67320;Laerm;57665;51.436;5.978;2022-10-19T00:47:15;38.38;37.10;39.31;;
67320;Laerm;57665;51.436;5.978;2022-10-19T00:47:27;38.45;37.46;39.39;;
67320;Laerm;57665;51.436;5.978;2022-10-19T00:47:38;38.41;37.16;39.61;;
67320;Laerm;57665;51.436;5.978;2022-10-19T00:47:49;38.45;37.35;39.83;;
67320;Laerm;57665;51.436;5.978;2022-10-19T00:47:59;38.45;36.85;39.48;;
67320;Laerm;57665;51.436;5.978;2022-10-19T00:48:10;38.44;37.33;39.48;;
67320;Laerm;57665;51.436;5.978;2022-10-19T00:48:25;38.60;37.26;39.80;;
67320;Laerm;57665;51.436;5.978;2022-10-19T00:48:36;38.51;37.08;40.66;;
67320;Laerm;57665;51.436;5.978;2022-10-19T00:48:46;38.46;37.09;39.93;;
67320;Laerm;57665;51.436;5.978;2022-10-19T00:49:01;38.49;37.11;39.89;;
67320;Laerm;57665;51.436;5.978;2022-10-19T00:49:26;38.43;36.88;39.70;;
67320;Laerm;57665;51.436;5.978;2022-10-19T00:49:39;38.49;37.25;39.60;;
67320;Laerm;57665;51.436;5.978;2022-10-19T00:49:51;38.41;37.32;39.83;;
67320;Laerm;57665;51.436;5.978;2022-10-19T00:50:01;38.39;37.11;39.69;;
67320;Laerm;57665;51.436;5.978;2022-10-19T00:50:12;38.45;37.30;39.49;;
67320;Laerm;57665;51.436;5.978;2022-10-19T00:50:23;38.63;37.43;40.36;;
67320;Laerm;57665;51.436;5.978;2022-10-19T00:50:33;38.56;37.27;39.87;;
67320;Laerm;57665;51.436;5.978;2022-10-19T00:50:44;38.38;36.96;39.71;;
67320;Laerm;57665;51.436;5.978;2022-10-19T00:50:55;38.45;37.31;40.17;;
67320;Laerm;57665;51.436;5.978;2022-10-19T00:51:07;38.45;37.25;39.47;;
67320;Laerm;57665;51.436;5.978;2022-10-19T00:51:18;38.36;37.07;39.23;;
67320;Laerm;57665;51.436;5.978;2022-10-19T00:51:35;38.47;37.27;39.85;;
67320;Laerm;57665;51.436;5.978;2022-10-19T00:51:53;38.50;37.35;39.86;;
67320;Laerm;57665;51.436;5.978;2022-10-19T00:52:05;38.60;37.33;40.40;;
67320;Laerm;57665;51.436;5.978;2022-10-19T00:52:20;38.50;37.32;39.96;;
67320;Laerm;57665;51.436;5.978;2022-10-19T00:52:33;38.40;37.26;39.57;;
67320;Laerm;57665;51.436;5.978;2022-10-19T00:52:43;38.49;37.46;39.82;;
67320;Laerm;57665;51.436;5.978;2022-10-19T00:52:53;38.47;37.04;39.90;;
67320;Laerm;57665;51.436;5.978;2022-10-19T00:53:03;38.34;37.10;39.80;;
67320;Laerm;57665;51.436;5.978;2022-10-19T00:53:15;38.41;37.16;39.95;;
67320;Laerm;57665;51.436;5.978;2022-10-19T00:53:26;38.39;37.10;39.65;;
67320;Laerm;57665;51.436;5.978;2022-10-19T00:53:38;38.34;37.05;39.68;;
67320;Laerm;57665;51.436;5.978;2022-10-19T00:53:48;38.27;37.30;39.50;;
67320;Laerm;57665;51.436;5.978;2022-10-19T00:53:59;38.35;37.34;39.67;;
67320;Laerm;57665;51.436;5.978;2022-10-19T00:54:10;38.33;37.12;39.63;;
67320;Laerm;57665;51.436;5.978;2022-10-19T00:54:20;38.38;37.13;39.70;;
67320;Laerm;57665;51.436;5.978;2022-10-19T00:54:35;38.43;37.25;39.53;;
67320;Laerm;57665;51.436;5.978;2022-10-19T00:54:49;38.44;37.24;39.86;;
67320;Laerm;57665;51.436;5.978;2022-10-19T00:55:01;38.41;37.36;39.49;;
67320;Laerm;57665;51.436;5.978;2022-10-19T00:55:12;38.41;37.38;39.48;;
67320;Laerm;57665;51.436;5.978;2022-10-19T00:55:23;38.28;37.15;39.50;;
67320;Laerm;57665;51.436;5.978;2022-10-19T00:55:33;38.25;36.98;39.43;;
67320;Laerm;57665;51.436;5.978;2022-10-19T00:55:47;38.33;37.11;39.48;;
67320;Laerm;57665;51.436;5.978;2022-10-19T00:55:58;38.46;37.33;39.64;;
67320;Laerm;57665;51.436;5.978;2022-10-19T00:56:14;38.48;37.08;39.65;;
67320;Laerm;57665;51.436;5.978;2022-10-19T00:56:24;38.44;37.35;39.63;;
67320;Laerm;57665;51.436;5.978;2022-10-19T00:56:35;38.41;37.43;39.43;;
67320;Laerm;57665;51.436;5.978;2022-10-19T00:56:48;38.50;37.27;39.54;;
67320;Laerm;57665;51.436;5.978;2022-10-19T00:56:58;38.52;37.18;39.70;;
67320;Laerm;57665;51.436;5.978;2022-10-19T00:57:12;38.54;37.13;40.73;;
67320;Laerm;57665;51.436;5.978;2022-10-19T00:57:23;38.47;37.48;39.75;;
67320;Laerm;57665;51.436;5.978;2022-10-19T00:57:36;38.47;37.39;39.58;;
67320;Laerm;57665;51.436;5.978;2022-10-19T00:57:46;38.33;37.07;39.41;;
67320;Laerm;57665;51.436;5.978;2022-10-19T00:57:56;38.30;37.21;39.54;;
67320;Laerm;57665;51.436;5.978;2022-10-19T00:58:07;38.37;37.47;39.65;;
67320;Laerm;57665;51.436;5.978;2022-10-19T00:58:17;38.40;37.22;39.56;;
67320;Laerm;57665;51.436;5.978;2022-10-19T00:58:28;38.47;37.29;39.85;;
67320;Laerm;57665;51.436;5.978;2022-10-19T00:58:39;38.38;37.35;39.37;;
67320;Laerm;57665;51.436;5.978;2022-10-19T00:58:50;38.35;37.32;39.46;;
67320;Laerm;57665;51.436;5.978;2022-10-19T00:59:02;38.37;37.21;39.36;;
67320;Laerm;57665;51.436;5.978;2022-10-19T00:59:13;38.45;37.27;40.16;;
67320;Laerm;57665;51.436;5.978;2022-10-19T00:59:25;38.41;37.23;39.66;;
67320;Laerm;57665;51.436;5.978;2022-10-19T00:59:37;38.41;37.05;39.48;;
67320;Laerm;57665;51.436;5.978;2022-10-19T00:59:47;38.46;37.32;39.50;;
67320;Laerm;57665;51.436;5.978;2022-10-19T00:59:58;38.33;37.33;39.74;;
67320;Laerm;57665;51.436;5.978;2022-10-19T01:00:09;38.83;37.15;43.00;;
67320;Laerm;57665;51.436;5.978;2022-10-19T01:00:19;38.69;36.98;43.28;;
67320;Laerm;57665;51.436;5.978;2022-10-19T01:00:30;38.50;37.28;39.93;;
67320;Laerm;57665;51.436;5.978;2022-10-19T01:00:40;38.55;37.54;40.07;;
67320;Laerm;57665;51.436;5.978;2022-10-19T01:00:50;38.56;37.33;39.60;;
67320;Laerm;57665;51.436;5.978;2022-10-19T01:01:02;38.56;37.26;39.66;;
67320;Laerm;57665;51.436;5.978;2022-10-19T01:01:15;38.55;37.27;40.14;;
67320;Laerm;57665;51.436;5.978;2022-10-19T01:01:26;38.66;37.29;39.91;;
67320;Laerm;57665;51.436;5.978;2022-10-19T01:01:37;38.58;37.30;39.76;;
67320;Laerm;57665;51.436;5.978;2022-10-19T01:01:48;38.50;37.37;40.02;;
67320;Laerm;57665;51.436;5.978;2022-10-19T01:01:59;38.47;37.20;40.33;;
67320;Laerm;57665;51.436;5.978;2022-10-19T01:02:11;38.52;37.00;39.89;;
67320;Laerm;57665;51.436;5.978;2022-10-19T01:02:22;38.52;37.36;39.82;;
67320;Laerm;57665;51.436;5.978;2022-10-19T01:02:32;38.51;37.37;39.93;;
67320;Laerm;57665;51.436;5.978;2022-10-19T01:02:42;38.60;37.39;39.64;;
67320;Laerm;57665;51.436;5.978;2022-10-19T01:02:53;38.70;37.56;40.41;;
67320;Laerm;57665;51.436;5.978;2022-10-19T01:03:03;38.58;37.29;39.74;;
67320;Laerm;57665;51.436;5.978;2022-10-19T01:03:13;38.57;37.01;39.82;;
67320;Laerm;57665;51.436;5.978;2022-10-19T01:03:24;38.54;37.23;39.61;;
67320;Laerm;57665;51.436;5.978;2022-10-19T01:03:34;38.50;37.30;39.65;;
67320;Laerm;57665;51.436;5.978;2022-10-19T01:03:44;38.55;36.99;39.82;;
67320;Laerm;57665;51.436;5.978;2022-10-19T01:03:55;38.62;37.41;39.70;;
67320;Laerm;57665;51.436;5.978;2022-10-19T01:04:05;38.64;37.26;39.98;;
67320;Laerm;57665;51.436;5.978;2022-10-19T01:04:15;38.52;36.92;39.61;;